createdAt,value
2018-12-09T00:00:06.558Z,10.24
2018-12-09T00:01:06.538Z,10.18
2018-12-09T00:02:06.516Z,10.21
2018-12-09T00:03:06.491Z,10.25
2018-12-09T00:04:06.475Z,10.09
2018-12-09T00:05:06.462Z,10.21
2018-12-09T00:06:06.431Z,10.15
2018-12-09T00:07:06.414Z,10.07
2018-12-09T00:08:06.389Z,9.99
2018-12-09T00:09:06.363Z,10.01
2018-12-09T00:10:06.344Z,10.00
2018-12-09T00:11:06.882Z,10.03
2018-12-09T00:12:06.298Z,10.03
2018-12-09T00:13:06.276Z,10.09
2018-12-09T00:14:06.254Z,9.96
2018-12-09T00:15:06.235Z,10.00
2018-12-09T00:16:06.212Z,9.96
2018-12-09T00:17:06.885Z,10.04
2018-12-09T00:18:06.167Z,10.09
2018-12-09T00:19:06.145Z,10.01
2018-12-09T00:20:06.126Z,9.91
2018-12-09T00:21:06.101Z,9.83
2018-12-09T00:22:06.083Z,9.81
2018-12-09T00:23:06.057Z,9.83
2018-12-09T00:24:06.103Z,9.58
2018-12-09T00:25:06.012Z,9.40
2018-12-09T00:26:05.986Z,9.06
2018-12-09T00:27:05.964Z,8.86
2018-12-09T00:28:05.945Z,8.76
2018-12-09T00:29:05.926Z,8.68
2018-12-09T00:30:05.901Z,8.58
2018-12-09T00:31:05.875Z,8.60
2018-12-09T00:32:05.859Z,8.63
2018-12-09T00:33:05.831Z,8.60
2018-12-09T00:34:05.811Z,8.66
2018-12-09T00:35:05.788Z,8.62
2018-12-09T00:36:05.763Z,8.50
2018-12-09T00:37:05.741Z,8.53
2018-12-09T00:38:05.721Z,8.44
2018-12-09T00:39:05.698Z,8.45
2018-12-09T00:40:05.685Z,8.44
2018-12-09T00:41:05.653Z,8.36
2018-12-09T00:42:05.631Z,8.28
2018-12-09T00:43:05.612Z,8.22
2018-12-09T00:44:05.586Z,8.12
2018-12-09T00:45:05.558Z,8.18
2018-12-09T00:46:05.541Z,8.22
2018-12-09T00:47:05.514Z,8.14
2018-12-09T00:48:05.498Z,8.25
2018-12-09T00:49:05.471Z,8.11
2018-12-09T00:50:05.450Z,8.14
2018-12-09T00:51:05.418Z,8.15
2018-12-09T00:52:05.401Z,8.15
2018-12-09T00:53:05.373Z,8.14
2018-12-09T00:54:05.358Z,8.28
2018-12-09T00:55:05.351Z,8.39
2018-12-09T00:56:05.302Z,8.36
2018-12-09T00:57:05.285Z,8.44
2018-12-09T00:58:05.273Z,8.37
2018-12-09T00:59:05.241Z,8.39
2018-12-09T01:00:05.213Z,8.48
2018-12-09T01:01:05.193Z,8.62
2018-12-09T01:02:05.174Z,8.78
2018-12-09T01:03:05.158Z,8.72
2018-12-09T01:04:05.126Z,8.72
2018-12-09T01:05:05.110Z,8.78
2018-12-09T01:06:05.081Z,8.87
2018-12-09T01:07:05.055Z,8.93
2018-12-09T01:08:05.038Z,8.81
2018-12-09T01:09:05.013Z,8.87
2018-12-09T01:10:04.987Z,8.83
2018-12-09T01:11:04.972Z,8.99
2018-12-09T01:12:04.947Z,8.91
2018-12-09T01:13:04.927Z,8.99
2018-12-09T01:14:04.899Z,9.09
2018-12-09T01:15:04.888Z,9.13
2018-12-09T01:16:04.857Z,9.16
2018-12-09T01:17:04.847Z,9.18
2018-12-09T01:18:04.811Z,9.18
2018-12-09T01:19:04.787Z,9.28
2018-12-09T01:20:04.760Z,9.38
2018-12-09T01:21:04.744Z,9.45
2018-12-09T01:22:04.719Z,9.45
2018-12-09T01:23:04.693Z,9.50
2018-12-09T01:24:04.682Z,9.39
2018-12-09T01:25:04.651Z,9.35
2018-12-09T01:26:04.622Z,9.23
2018-12-09T01:27:04.606Z,9.24
2018-12-09T01:28:04.581Z,9.23
2018-12-09T01:29:04.558Z,9.40
2018-12-09T01:30:04.540Z,9.38
2018-12-09T01:31:04.512Z,9.39
2018-12-09T01:32:04.494Z,9.45
2018-12-09T01:33:04.471Z,9.42
2018-12-09T01:34:04.445Z,9.46
2018-12-09T01:35:04.422Z,9.52
2018-12-09T01:36:04.403Z,9.48
2018-12-09T01:37:04.377Z,9.63
2018-12-09T01:38:04.361Z,9.78
2018-12-09T01:39:04.336Z,9.88
2018-12-09T01:40:04.315Z,9.88
2018-12-09T01:41:04.299Z,9.71
2018-12-09T01:42:04.270Z,9.75
2018-12-09T01:43:04.248Z,9.75
2018-12-09T01:44:04.222Z,9.70
2018-12-09T01:45:04.204Z,9.81
2018-12-09T01:46:04.913Z,9.79
2018-12-09T01:47:04.157Z,9.79
2018-12-09T01:48:04.136Z,9.82
2018-12-09T01:49:04.110Z,9.81
2018-12-09T01:50:04.092Z,9.71
2018-12-09T01:51:04.064Z,9.83
2018-12-09T01:52:04.047Z,9.85
2018-12-09T01:53:04.028Z,10.00
2018-12-09T01:54:03.998Z,9.88
2018-12-09T01:55:04.909Z,10.07
2018-12-09T01:56:03.957Z,10.15
2018-12-09T01:57:03.938Z,10.04
2018-12-09T01:58:03.916Z,10.15
2018-12-09T01:59:03.890Z,10.17
2018-12-09T02:00:03.867Z,10.15
2018-12-09T02:01:03.842Z,10.09
2018-12-09T02:02:03.826Z,10.06
2018-12-09T02:03:03.794Z,10.17
2018-12-09T02:04:03.781Z,10.25
2018-12-09T02:05:03.759Z,10.34
2018-12-09T02:06:03.749Z,10.42
2018-12-09T02:07:03.711Z,10.36
2018-12-09T02:08:03.690Z,10.46
2018-12-09T02:09:03.670Z,10.33
2018-12-09T02:10:03.645Z,10.24
2018-12-09T02:11:03.625Z,10.28
2018-12-09T02:12:03.603Z,10.24
2018-12-09T02:13:03.581Z,10.26
2018-12-09T02:14:03.558Z,10.40
2018-12-09T02:15:03.539Z,10.26
2018-12-09T02:16:03.515Z,10.22
2018-12-09T02:17:03.495Z,10.15
2018-12-09T02:18:03.467Z,10.19
2018-12-09T02:19:03.450Z,10.14
2018-12-09T02:20:03.441Z,10.14
2018-12-09T02:21:03.412Z,10.17
2018-12-09T02:22:03.383Z,10.12
2018-12-09T02:23:03.365Z,10.14
2018-12-09T02:24:03.342Z,10.07
2018-12-09T02:25:03.319Z,10.06
2018-12-09T02:26:03.295Z,10.00
2018-12-09T02:27:03.270Z,10.01
2018-12-09T02:28:03.251Z,10.01
2018-12-09T02:29:03.228Z,9.96
2018-12-09T02:30:03.210Z,9.93
2018-12-09T02:31:03.184Z,10.04
2018-12-09T02:32:03.168Z,9.86
2018-12-09T02:33:03.139Z,9.93
2018-12-09T02:34:03.123Z,9.78
2018-12-09T02:35:03.102Z,9.66
2018-12-09T02:36:03.080Z,9.49
2018-12-09T02:37:03.055Z,9.58
2018-12-09T02:38:03.031Z,9.57
2018-12-09T02:39:03.010Z,9.49
2018-12-09T02:40:02.989Z,9.53
2018-12-09T02:41:03.056Z,9.52
2018-12-09T02:42:02.951Z,9.52
2018-12-09T02:43:02.923Z,9.49
2018-12-09T02:44:02.900Z,9.46
2018-12-09T02:45:02.883Z,9.49
2018-12-09T02:46:02.858Z,9.60
2018-12-09T02:47:02.836Z,9.58
2018-12-09T02:48:02.811Z,9.58
2018-12-09T02:49:02.794Z,9.75
2018-12-09T02:50:02.775Z,9.66
2018-12-09T02:51:02.740Z,9.68
2018-12-09T02:52:02.722Z,9.78
2018-12-09T02:53:02.700Z,9.79
2018-12-09T02:54:02.681Z,9.76
2018-12-09T02:55:02.655Z,9.73
2018-12-09T02:56:02.630Z,9.60
2018-12-09T02:57:02.617Z,9.56
2018-12-09T02:58:02.593Z,9.61
2018-12-09T02:59:02.570Z,9.58
2018-12-09T03:00:02.543Z,9.46
2018-12-09T03:01:02.524Z,9.52
2018-12-09T03:02:02.502Z,9.49
2018-12-09T03:03:03.426Z,9.45
2018-12-09T03:04:02.458Z,9.50
2018-12-09T03:05:02.449Z,9.48
2018-12-09T03:06:02.412Z,9.49
2018-12-09T03:07:02.390Z,9.49
2018-12-09T03:08:02.370Z,9.49
2018-12-09T03:09:02.347Z,9.57
2018-12-09T03:10:02.319Z,9.57
2018-12-09T03:11:02.303Z,9.53
2018-12-09T03:12:02.285Z,9.61
2018-12-09T03:13:02.269Z,9.56
2018-12-09T03:14:02.236Z,9.50
2018-12-09T03:15:02.213Z,9.45
2018-12-09T03:16:02.191Z,9.49
2018-12-09T03:17:02.165Z,9.49
2018-12-09T03:18:02.147Z,9.38
2018-12-09T03:19:02.120Z,9.16
2018-12-09T03:20:02.104Z,9.18
2018-12-09T03:21:02.088Z,9.04
2018-12-09T03:22:02.060Z,8.99
2018-12-09T03:23:02.036Z,8.87
2018-12-09T03:24:02.017Z,8.94
2018-12-09T03:25:01.997Z,8.90
2018-12-09T03:26:01.978Z,8.79
2018-12-09T03:27:01.948Z,8.72
2018-12-09T03:28:01.934Z,8.60
2018-12-09T03:29:01.905Z,8.69
2018-12-09T03:30:01.881Z,8.68
2018-12-09T03:31:01.862Z,8.63
2018-12-09T03:32:01.851Z,8.68
2018-12-09T03:33:01.830Z,8.63
2018-12-09T03:34:01.796Z,8.48
2018-12-09T03:35:01.767Z,8.51
2018-12-09T03:36:01.745Z,8.54
2018-12-09T03:37:01.726Z,8.47
2018-12-09T03:38:01.702Z,8.39
2018-12-09T03:39:01.676Z,8.44
2018-12-09T03:40:01.650Z,8.44
2018-12-09T03:41:01.635Z,8.37
2018-12-09T03:42:01.608Z,8.50
2018-12-09T03:43:01.607Z,8.45
2018-12-09T03:44:01.564Z,8.44
2018-12-09T03:45:01.541Z,8.40
2018-12-09T03:46:01.516Z,8.36
2018-12-09T03:47:01.496Z,8.40
2018-12-09T03:48:01.471Z,8.51
2018-12-09T03:49:01.450Z,8.55
2018-12-09T03:50:01.431Z,8.58
2018-12-09T03:51:01.407Z,8.65
2018-12-09T03:52:01.378Z,8.58
2018-12-09T03:53:01.362Z,8.55
2018-12-09T03:54:01.334Z,8.54
2018-12-09T03:55:01.312Z,8.63
2018-12-09T03:56:01.460Z,8.58
2018-12-09T03:57:01.277Z,8.62
2018-12-09T03:58:01.245Z,8.58
2018-12-09T03:59:01.220Z,8.63
2018-12-09T04:00:01.201Z,8.69
2018-12-09T04:01:01.178Z,8.75
2018-12-09T04:02:01.152Z,8.81
2018-12-09T04:03:01.127Z,8.76
2018-12-09T04:04:01.108Z,8.83
2018-12-09T04:05:01.084Z,8.84
2018-12-09T04:06:01.938Z,8.86
2018-12-09T04:07:01.041Z,8.81
2018-12-09T04:08:01.021Z,8.88
2018-12-09T04:09:00.992Z,8.90
2018-12-09T04:10:00.975Z,8.78
2018-12-09T04:11:00.945Z,8.78
2018-12-09T04:12:00.917Z,8.81
2018-12-09T04:13:00.900Z,8.81
2018-12-09T04:14:00.880Z,8.94
2018-12-09T04:15:00.854Z,8.91
2018-12-09T04:16:00.836Z,8.91
2018-12-09T04:17:00.813Z,8.88
2018-12-09T04:18:00.791Z,8.91
2018-12-09T04:19:00.780Z,8.96
2018-12-09T04:20:00.749Z,8.81
2018-12-09T04:21:00.724Z,8.76
2018-12-09T04:22:00.699Z,8.78
2018-12-09T04:23:00.690Z,8.78
2018-12-09T04:24:00.659Z,8.63
2018-12-09T04:25:00.626Z,8.58
2018-12-09T04:26:00.601Z,8.58
2018-12-09T04:27:00.588Z,8.58
2018-12-09T04:28:00.565Z,8.60
2018-12-09T04:29:00.540Z,8.60
2018-12-09T04:30:00.516Z,8.66
2018-12-09T04:31:00.494Z,8.72
2018-12-09T04:32:00.471Z,8.79
2018-12-09T04:33:00.452Z,8.84
2018-12-09T04:34:00.430Z,8.84
2018-12-09T04:35:00.408Z,8.84
2018-12-09T04:36:00.401Z,8.76
2018-12-09T04:37:00.363Z,8.90
2018-12-09T04:38:00.330Z,8.81
2018-12-09T04:39:00.315Z,8.79
2018-12-09T04:40:00.292Z,8.83
2018-12-09T04:41:00.367Z,8.69
2018-12-09T04:42:00.251Z,8.79
2018-12-09T04:43:00.219Z,8.87
2018-12-09T04:44:00.202Z,9.02
2018-12-09T04:45:00.180Z,8.88
2018-12-09T04:46:00.157Z,8.93
2018-12-09T04:47:00.140Z,8.93
2018-12-09T04:48:00.106Z,8.87
2018-12-09T04:49:00.091Z,8.90
2018-12-09T04:50:00.064Z,8.91
2018-12-09T04:51:00.045Z,8.81
2018-12-09T04:52:00.020Z,8.78
2018-12-09T04:53:00.003Z,8.90
2018-12-09T04:53:59.977Z,8.86
2018-12-09T04:54:59.956Z,8.79
2018-12-09T04:55:59.927Z,8.75
2018-12-09T04:56:59.910Z,8.63
2018-12-09T04:57:59.885Z,8.54
2018-12-09T04:58:59.858Z,8.62
2018-12-09T04:59:59.840Z,8.53
2018-12-09T05:00:59.817Z,8.54
2018-12-09T05:01:59.785Z,8.62
2018-12-09T05:02:59.773Z,8.65
2018-12-09T05:03:59.747Z,8.66
2018-12-09T05:04:59.721Z,8.60
2018-12-09T05:05:59.704Z,8.54
2018-12-09T05:06:59.684Z,8.42
2018-12-09T05:07:59.656Z,8.60
2018-12-09T05:08:59.637Z,8.50
2018-12-09T05:09:59.614Z,8.47
2018-12-09T05:10:59.590Z,8.39
2018-12-09T05:11:59.573Z,8.42
2018-12-09T05:12:59.545Z,8.33
2018-12-09T05:13:59.517Z,8.26
2018-12-09T05:14:59.498Z,8.29
2018-12-09T05:15:59.479Z,8.26
2018-12-09T05:16:59.453Z,8.20
2018-12-09T05:17:59.431Z,8.26
2018-12-09T05:18:59.411Z,8.26
2018-12-09T05:19:59.385Z,8.30
2018-12-09T05:20:59.357Z,8.12
2018-12-09T05:21:59.344Z,8.14
2018-12-09T05:22:59.318Z,8.14
2018-12-09T05:23:59.290Z,8.18
2018-12-09T05:24:59.271Z,8.20
2018-12-09T05:25:59.248Z,8.10
2018-12-09T05:26:59.227Z,8.08
2018-12-09T05:27:59.194Z,8.07
2018-12-09T05:28:59.181Z,8.04
2018-12-09T05:29:59.155Z,8.04
2018-12-09T05:30:59.133Z,8.02
2018-12-09T05:31:59.105Z,7.96
2018-12-09T05:32:59.088Z,7.99
2018-12-09T05:33:59.066Z,8.08
2018-12-09T05:34:59.047Z,8.04
2018-12-09T05:35:59.021Z,8.14
2018-12-09T05:36:58.999Z,8.15
2018-12-09T05:37:58.973Z,8.15
2018-12-09T05:38:58.947Z,8.11
2018-12-09T05:39:58.931Z,8.26
2018-12-09T05:40:58.904Z,8.18
2018-12-09T05:41:58.878Z,8.29
2018-12-09T05:42:58.853Z,8.28
2018-12-09T05:43:58.837Z,8.37
2018-12-09T05:44:58.811Z,8.33
2018-12-09T05:45:58.789Z,8.35
2018-12-09T05:46:58.764Z,8.40
2018-12-09T05:47:58.747Z,8.37
2018-12-09T05:48:58.719Z,8.33
2018-12-09T05:49:58.697Z,8.40
2018-12-09T05:50:59.469Z,8.32
2018-12-09T05:51:58.652Z,8.26
2018-12-09T05:52:58.634Z,8.33
2018-12-09T05:53:58.604Z,8.26
2018-12-09T05:54:58.576Z,8.30
2018-12-09T05:55:58.561Z,8.14
2018-12-09T05:56:58.534Z,8.15
2018-12-09T05:57:58.518Z,8.12
2018-12-09T05:58:58.491Z,8.07
2018-12-09T05:59:58.469Z,8.07
2018-12-09T06:00:58.443Z,8.12
2018-12-09T06:01:58.424Z,8.21
2018-12-09T06:02:58.402Z,8.17
2018-12-09T06:03:58.369Z,8.26
2018-12-09T06:04:58.354Z,8.26
2018-12-09T06:05:58.387Z,8.28
2018-12-09T06:06:58.308Z,8.28
2018-12-09T06:07:58.284Z,8.29
2018-12-09T06:08:58.262Z,8.18
2018-12-09T06:09:58.231Z,8.11
2018-12-09T06:10:58.211Z,8.17
2018-12-09T06:11:58.192Z,8.15
2018-12-09T06:12:58.173Z,8.22
2018-12-09T06:13:58.156Z,8.28
2018-12-09T06:14:58.124Z,8.39
2018-12-09T06:15:58.095Z,8.54
2018-12-09T06:16:58.070Z,8.44
2018-12-09T06:17:58.047Z,8.50
2018-12-09T06:18:58.034Z,8.47
2018-12-09T06:19:58.010Z,8.48
2018-12-09T06:20:58.478Z,8.57
2018-12-09T06:21:57.955Z,8.54
2018-12-09T06:22:57.941Z,8.58
2018-12-09T06:23:57.915Z,8.48
2018-12-09T06:24:57.889Z,8.50
2018-12-09T06:25:57.863Z,8.48
2018-12-09T06:26:57.848Z,8.45
2018-12-09T06:27:57.824Z,8.57
2018-12-09T06:28:57.790Z,8.68
2018-12-09T06:29:57.777Z,8.60
2018-12-09T06:30:57.766Z,8.58
2018-12-09T06:31:57.729Z,8.57
2018-12-09T06:32:57.704Z,8.57
2018-12-09T06:33:57.698Z,8.53
2018-12-09T06:34:57.668Z,8.58
2018-12-09T06:35:57.645Z,8.50
2018-12-09T06:36:57.614Z,8.57
2018-12-09T06:37:57.596Z,8.47
2018-12-09T06:38:57.566Z,8.55
2018-12-09T06:39:57.544Z,8.48
2018-12-09T06:40:57.528Z,8.55
2018-12-09T06:41:57.506Z,8.65
2018-12-09T06:42:57.471Z,8.63
2018-12-09T06:43:57.455Z,8.40
2018-12-09T06:44:57.460Z,8.48
2018-12-09T06:45:57.413Z,8.40
2018-12-09T06:46:57.390Z,8.47
2018-12-09T06:47:57.363Z,8.65
2018-12-09T06:48:57.338Z,8.60
2018-12-09T06:49:57.329Z,8.62
2018-12-09T06:50:57.980Z,8.63
2018-12-09T06:51:57.272Z,8.75
2018-12-09T06:52:57.254Z,8.76
2018-12-09T06:53:57.224Z,8.90
2018-12-09T06:54:57.202Z,8.86
2018-12-09T06:55:57.178Z,8.79
2018-12-09T06:56:57.157Z,8.79
2018-12-09T06:57:57.136Z,8.79
2018-12-09T06:58:57.107Z,8.94
2018-12-09T06:59:57.085Z,8.86
2018-12-09T07:00:57.101Z,8.91
2018-12-09T07:01:57.054Z,8.88
2018-12-09T07:02:57.123Z,8.90
2018-12-09T07:03:57.025Z,8.93
2018-12-09T07:04:56.975Z,8.97
2018-12-09T07:05:56.954Z,8.97
2018-12-09T07:06:56.964Z,8.88
2018-12-09T07:07:56.938Z,8.96
2018-12-09T07:08:56.881Z,8.91
2018-12-09T07:09:56.868Z,8.96
2018-12-09T07:10:56.833Z,8.87
2018-12-09T07:11:56.826Z,8.76
2018-12-09T07:12:56.807Z,8.93
2018-12-09T07:13:56.791Z,8.97
2018-12-09T07:14:56.762Z,8.99
2018-12-09T07:15:56.727Z,8.96
2018-12-09T07:16:56.693Z,8.88
2018-12-09T07:17:57.490Z,8.96
2018-12-09T07:18:56.690Z,8.81
2018-12-09T07:19:56.635Z,8.88
2018-12-09T07:20:56.616Z,8.87
2018-12-09T07:21:56.596Z,8.88
2018-12-09T07:22:57.486Z,8.90
2018-12-09T07:23:56.542Z,8.86
2018-12-09T07:24:56.522Z,8.90
2018-12-09T07:25:56.496Z,8.88
2018-12-09T07:26:56.490Z,8.86
2018-12-09T07:27:56.457Z,8.94
2018-12-09T07:28:56.448Z,8.93
2018-12-09T07:30:02.287Z,8.91
2018-12-09T07:30:56.393Z,8.93
2018-12-09T07:31:56.364Z,8.93
2018-12-09T07:32:56.342Z,8.99
2018-12-09T07:33:56.314Z,9.01
2018-12-09T07:34:56.308Z,8.91
2018-12-09T07:35:56.280Z,8.99
2018-12-09T07:36:56.250Z,8.96
2018-12-09T07:37:56.227Z,9.01
2018-12-09T07:38:56.202Z,8.88
2018-12-09T07:39:56.189Z,8.93
2018-12-09T07:40:56.157Z,8.99
2018-12-09T07:41:56.145Z,9.02
2018-12-09T07:42:56.115Z,8.96
2018-12-09T07:43:56.092Z,8.96
2018-12-09T07:44:56.083Z,8.96
2018-12-09T07:45:56.046Z,8.90
2018-12-09T07:46:56.040Z,8.88
2018-12-09T07:47:56.002Z,8.99
2018-12-09T07:48:55.976Z,9.02
2018-12-09T07:49:55.967Z,9.13
2018-12-09T07:50:55.942Z,9.01
2018-12-09T07:51:55.910Z,8.97
2018-12-09T07:52:55.892Z,8.99
2018-12-09T07:54:04.510Z,9.01
2018-12-09T07:55:49.222Z,9.09
2018-12-09T07:56:49.184Z,8.99
2018-12-09T07:57:49.174Z,9.05
2018-12-09T07:58:49.139Z,9.04
2018-12-09T07:59:49.109Z,9.01
2018-12-09T08:00:49.092Z,9.06
2018-12-09T08:01:49.095Z,9.01
2018-12-09T08:02:49.047Z,9.05
2018-12-09T08:03:49.032Z,8.97
2018-12-09T08:04:49.009Z,9.02
2018-12-09T08:05:48.983Z,9.01
2018-12-09T08:06:48.964Z,9.01
2018-12-09T08:07:48.939Z,9.01
2018-12-09T08:08:48.905Z,8.91
2018-12-09T08:09:48.901Z,9.01
2018-12-09T08:10:48.865Z,8.94
2018-12-09T08:11:48.851Z,8.97
2018-12-09T08:12:48.829Z,8.97
2018-12-09T08:13:48.822Z,8.94
2018-12-09T08:14:48.781Z,8.90
2018-12-09T08:15:48.757Z,8.94
2018-12-09T08:16:48.745Z,8.88
2018-12-09T08:17:48.715Z,8.88
2018-12-09T08:18:48.695Z,8.94
2018-12-09T08:19:48.679Z,8.93
2018-12-09T08:20:48.654Z,8.87
2018-12-09T08:21:48.631Z,8.88
2018-12-09T08:22:48.603Z,8.90
2018-12-09T08:23:48.580Z,8.88
2018-12-09T08:24:48.551Z,9.01
2018-12-09T08:25:48.544Z,9.01
2018-12-09T08:26:48.517Z,8.97
2018-12-09T08:27:48.487Z,8.96
2018-12-09T08:28:48.461Z,8.86
2018-12-09T08:29:48.439Z,8.97
2018-12-09T08:30:48.438Z,8.99
2018-12-09T08:31:48.397Z,8.93
2018-12-09T08:32:48.379Z,8.91
2018-12-09T08:33:48.355Z,8.94
2018-12-09T08:34:48.330Z,9.01
2018-12-09T08:35:48.310Z,8.90
2018-12-09T08:36:48.281Z,8.90
2018-12-09T08:37:48.272Z,8.84
2018-12-09T08:38:48.306Z,8.87
2018-12-09T08:39:48.214Z,8.86
2018-12-09T08:40:48.197Z,8.90
2018-12-09T08:41:48.178Z,8.90
2018-12-09T08:42:48.156Z,8.81
2018-12-09T08:43:48.127Z,8.81
2018-12-09T08:44:48.107Z,8.79
2018-12-09T08:45:48.083Z,8.81
2018-12-09T08:46:48.063Z,8.83
2018-12-09T08:47:48.040Z,8.93
2018-12-09T08:48:48.015Z,8.88
2018-12-09T08:49:47.999Z,8.87
2018-12-09T08:50:47.970Z,8.91
2018-12-09T08:51:47.960Z,8.97
2018-12-09T08:52:47.935Z,8.88
2018-12-09T08:53:47.913Z,8.94
2018-12-09T08:54:47.994Z,8.87
2018-12-09T08:55:47.858Z,8.87
2018-12-09T08:56:47.848Z,8.90
2018-12-09T08:57:47.813Z,8.93
2018-12-09T08:58:47.810Z,8.90
2018-12-09T08:59:47.777Z,8.91
2018-12-09T09:00:47.749Z,8.96
2018-12-09T09:01:47.736Z,8.91
2018-12-09T09:02:47.703Z,8.94
2018-12-09T09:03:47.687Z,8.99
2018-12-09T09:04:47.658Z,9.01
2018-12-09T09:05:47.638Z,8.99
2018-12-09T09:06:47.623Z,9.05
2018-12-09T09:07:47.593Z,9.09
2018-12-09T09:08:47.571Z,9.06
2018-12-09T09:09:47.562Z,9.01
2018-12-09T09:10:47.593Z,9.04
2018-12-09T09:11:47.508Z,9.12
2018-12-09T09:12:47.482Z,9.15
2018-12-09T09:13:47.460Z,9.16
2018-12-09T09:14:47.438Z,9.21
2018-12-09T09:15:47.422Z,9.21
2018-12-09T09:16:47.403Z,9.13
2018-12-09T09:17:47.374Z,9.12
2018-12-09T09:18:47.352Z,9.15
2018-12-09T09:19:47.329Z,9.12
2018-12-09T09:20:47.310Z,9.21
2018-12-09T09:21:47.295Z,9.13
2018-12-09T09:22:47.272Z,9.10
2018-12-09T09:23:47.243Z,9.13
2018-12-09T09:24:47.221Z,9.18
2018-12-09T09:25:47.198Z,9.24
2018-12-09T09:26:47.179Z,9.24
2018-12-09T09:27:47.154Z,9.20
2018-12-09T09:28:47.228Z,9.23
2018-12-09T09:29:47.115Z,9.21
2018-12-09T09:30:47.089Z,9.27
2018-12-09T09:31:47.077Z,9.21
2018-12-09T09:32:47.045Z,9.21
2018-12-09T09:33:47.024Z,9.27
2018-12-09T09:34:47.003Z,9.31
2018-12-09T09:35:46.981Z,9.21
2018-12-09T09:36:46.962Z,9.25
2018-12-09T09:37:46.940Z,9.21
2018-12-09T09:38:46.915Z,9.21
2018-12-09T09:39:46.902Z,9.27
2018-12-09T09:40:47.749Z,9.27
2018-12-09T09:41:46.860Z,9.24
2018-12-09T09:42:46.828Z,9.27
2018-12-09T09:43:46.812Z,9.35
2018-12-09T09:44:46.784Z,9.35
2018-12-09T09:45:46.767Z,9.32
2018-12-09T09:46:46.742Z,9.38
2018-12-09T09:47:46.722Z,9.35
2018-12-09T09:48:46.704Z,9.31
2018-12-09T09:49:46.682Z,9.40
2018-12-09T09:50:46.653Z,9.35
2018-12-09T09:51:46.640Z,9.35
2018-12-09T09:52:46.619Z,9.39
2018-12-09T09:53:46.595Z,9.43
2018-12-09T09:54:46.563Z,9.32
2018-12-09T09:55:46.551Z,9.38
2018-12-09T09:56:46.528Z,9.38
2018-12-09T09:57:46.510Z,9.35
2018-12-09T09:58:46.486Z,9.39
2018-12-09T09:59:46.460Z,9.32
2018-12-09T10:00:46.437Z,9.38
2018-12-09T10:01:46.422Z,9.35
2018-12-09T10:02:46.399Z,9.38
2018-12-09T10:03:47.260Z,9.39
2018-12-09T10:04:46.354Z,9.39
2018-12-09T10:05:46.335Z,9.40
2018-12-09T10:06:46.307Z,9.38
2018-12-09T10:07:46.287Z,9.46
2018-12-09T10:08:46.270Z,9.48
2018-12-09T10:09:46.244Z,9.45
2018-12-09T10:10:46.229Z,9.48
2018-12-09T10:11:46.205Z,9.50
2018-12-09T10:12:46.177Z,9.49
2018-12-09T10:13:46.167Z,9.57
2018-12-09T10:14:46.165Z,9.46
2018-12-09T10:15:46.112Z,9.49
2018-12-09T10:16:46.093Z,9.49
2018-12-09T10:17:46.077Z,9.60
2018-12-09T10:18:46.055Z,9.57
2018-12-09T10:19:46.035Z,9.56
2018-12-09T10:20:46.006Z,9.61
2018-12-09T10:21:45.990Z,9.61
2018-12-09T10:22:45.968Z,9.58
2018-12-09T10:23:45.942Z,9.49
2018-12-09T10:24:45.925Z,9.56
2018-12-09T10:25:45.906Z,9.61
2018-12-09T10:26:45.886Z,9.57
2018-12-09T10:27:45.855Z,9.58
2018-12-09T10:28:45.849Z,9.63
2018-12-09T10:29:45.821Z,9.67
2018-12-09T10:30:45.800Z,9.56
2018-12-09T10:31:45.781Z,9.61
2018-12-09T10:32:45.753Z,9.58
2018-12-09T10:33:45.731Z,9.58
2018-12-09T10:34:45.714Z,9.56
2018-12-09T10:35:45.686Z,9.58
2018-12-09T10:36:45.666Z,9.56
2018-12-09T10:37:45.646Z,9.58
2018-12-09T10:38:45.622Z,9.61
2018-12-09T10:39:45.608Z,9.53
2018-12-09T10:40:45.589Z,9.49
2018-12-09T10:41:45.560Z,9.49
2018-12-09T10:42:45.544Z,9.50
2018-12-09T10:43:45.516Z,9.49
2018-12-09T10:44:45.505Z,9.46
2018-12-09T10:45:45.473Z,9.49
2018-12-09T10:46:45.460Z,9.53
2018-12-09T10:47:45.436Z,9.46
2018-12-09T10:48:45.409Z,9.52
2018-12-09T10:49:45.396Z,9.48
2018-12-09T10:50:45.372Z,9.48
2018-12-09T10:51:45.349Z,9.50
2018-12-09T10:52:45.325Z,9.48
2018-12-09T10:53:45.302Z,9.43
2018-12-09T10:54:45.280Z,9.45
2018-12-09T10:55:45.329Z,9.38
2018-12-09T10:56:45.238Z,9.42
2018-12-09T10:57:45.222Z,9.49
2018-12-09T10:58:45.197Z,9.45
2018-12-09T10:59:45.172Z,9.43
2018-12-09T11:00:45.159Z,9.43
2018-12-09T11:01:45.777Z,9.46
2018-12-09T11:02:45.113Z,9.39
2018-12-09T11:03:45.095Z,9.50
2018-12-09T11:04:45.067Z,9.45
2018-12-09T11:05:45.044Z,9.43
2018-12-09T11:06:45.031Z,9.42
2018-12-09T11:07:45.025Z,9.53
2018-12-09T11:08:44.987Z,9.42
2018-12-09T11:09:44.965Z,9.49
2018-12-09T11:10:45.787Z,9.40
2018-12-09T11:11:44.917Z,9.45
2018-12-09T11:12:44.901Z,9.42
2018-12-09T11:13:44.872Z,9.48
2018-12-09T11:14:44.860Z,9.45
2018-12-09T11:15:44.834Z,9.48
2018-12-09T11:16:44.809Z,9.48
2018-12-09T11:17:44.786Z,9.48
2018-12-09T11:18:44.774Z,9.53
2018-12-09T11:19:44.745Z,9.50
2018-12-09T11:20:44.722Z,9.49
2018-12-09T11:21:44.706Z,9.46
2018-12-09T11:22:44.687Z,9.56
2018-12-09T11:23:44.667Z,9.48
2018-12-09T11:24:44.636Z,9.49
2018-12-09T11:25:44.613Z,9.53
2018-12-09T11:26:44.595Z,9.60
2018-12-09T11:27:44.579Z,9.61
2018-12-09T11:28:44.556Z,9.58
2018-12-09T11:29:45.281Z,9.53
2018-12-09T11:30:44.510Z,9.53
2018-12-09T11:31:44.487Z,9.56
2018-12-09T11:32:44.473Z,9.58
2018-12-09T11:33:44.450Z,9.49
2018-12-09T11:34:44.427Z,9.61
2018-12-09T11:35:44.401Z,9.56
2018-12-09T11:36:44.385Z,9.58
2018-12-09T11:37:44.363Z,9.57
2018-12-09T11:38:44.337Z,9.58
2018-12-09T11:39:44.324Z,9.63
2018-12-09T11:40:44.299Z,9.57
2018-12-09T11:41:44.280Z,9.58
2018-12-09T11:42:44.252Z,9.57
2018-12-09T11:43:44.229Z,9.61
2018-12-09T11:44:44.207Z,9.60
2018-12-09T11:45:44.195Z,9.63
2018-12-09T11:46:44.169Z,9.56
2018-12-09T11:47:44.146Z,9.58
2018-12-09T11:48:44.119Z,9.49
2018-12-09T11:49:44.103Z,9.58
2018-12-09T11:50:44.082Z,9.49
2018-12-09T11:51:44.062Z,9.56
2018-12-09T11:52:44.036Z,9.57
2018-12-09T11:53:44.024Z,9.57
2018-12-09T11:54:43.991Z,9.49
2018-12-09T11:55:43.976Z,9.46
2018-12-09T11:56:43.954Z,9.64
2018-12-09T11:57:43.952Z,9.66
2018-12-09T11:58:43.913Z,9.68
2018-12-09T11:59:44.798Z,9.53
2018-12-09T12:00:43.863Z,9.52
2018-12-09T12:01:43.842Z,9.38
2018-12-09T12:02:43.824Z,9.34
2018-12-09T12:03:43.795Z,9.32
2018-12-09T12:04:43.776Z,9.38
2018-12-09T12:05:43.753Z,9.32
2018-12-09T12:06:43.734Z,9.23
2018-12-09T12:07:43.711Z,9.20
2018-12-09T12:08:43.686Z,9.25
2018-12-09T12:09:43.666Z,9.28
2018-12-09T12:10:43.653Z,9.34
2018-12-09T12:11:43.625Z,9.38
2018-12-09T12:12:43.605Z,9.30
2018-12-09T12:13:43.579Z,9.25
2018-12-09T12:14:43.557Z,9.21
2018-12-09T12:15:43.538Z,9.12
2018-12-09T12:16:43.511Z,9.16
2018-12-09T12:17:43.497Z,9.13
2018-12-09T12:18:43.581Z,9.06
2018-12-09T12:19:43.444Z,9.06
2018-12-09T12:20:43.435Z,8.94
2018-12-09T12:21:43.409Z,9.02
2018-12-09T12:22:43.390Z,8.97
2018-12-09T12:23:43.374Z,9.02
2018-12-09T12:24:43.346Z,8.93
2018-12-09T12:25:43.310Z,8.99
2018-12-09T12:26:43.291Z,8.96
2018-12-09T12:27:43.274Z,8.96
2018-12-09T12:28:43.246Z,8.96
2018-12-09T12:29:43.230Z,8.94
2018-12-09T12:30:43.201Z,8.90
2018-12-09T12:31:43.180Z,8.96
2018-12-09T12:32:43.163Z,8.91
2018-12-09T12:33:43.137Z,8.87
2018-12-09T12:34:43.115Z,8.86
2018-12-09T12:35:43.089Z,8.96
2018-12-09T12:36:43.076Z,8.96
2018-12-09T12:37:43.047Z,8.93
2018-12-09T12:38:43.029Z,8.99
2018-12-09T12:39:43.006Z,9.01
2018-12-09T12:40:42.993Z,8.96
2018-12-09T12:41:42.964Z,9.01
2018-12-09T12:42:42.940Z,9.10
2018-12-09T12:43:42.915Z,9.04
2018-12-09T12:44:42.893Z,9.10
2018-12-09T12:45:42.876Z,9.06
2018-12-09T12:46:42.848Z,9.10
2018-12-09T12:47:42.831Z,9.10
2018-12-09T12:48:42.818Z,9.06
2018-12-09T12:49:42.782Z,9.16
2018-12-09T12:50:42.764Z,9.20
2018-12-09T12:51:42.732Z,9.23
2018-12-09T12:52:42.714Z,9.18
2018-12-09T12:53:42.695Z,9.18
2018-12-09T12:54:42.705Z,9.21
2018-12-09T12:55:42.647Z,9.20
2018-12-09T12:56:42.615Z,9.21
2018-12-09T12:57:42.609Z,9.27
2018-12-09T12:58:42.593Z,9.25
2018-12-09T12:59:42.561Z,9.21
2018-12-09T13:00:42.541Z,9.35
2018-12-09T13:01:42.513Z,9.35
2018-12-09T13:02:42.491Z,9.43
2018-12-09T13:03:42.477Z,9.45
2018-12-09T13:04:42.461Z,9.38
2018-12-09T13:05:42.423Z,9.42
2018-12-09T13:06:42.404Z,9.48
2018-12-09T13:07:43.317Z,9.60
2018-12-09T13:08:42.404Z,9.52
2018-12-09T13:09:42.340Z,9.52
2018-12-09T13:10:42.328Z,9.45
2018-12-09T13:11:42.293Z,9.50
2018-12-09T13:12:42.269Z,9.39
2018-12-09T13:13:42.244Z,9.42
2018-12-09T13:14:42.221Z,9.39
2018-12-09T13:15:42.206Z,9.25
2018-12-09T13:16:42.186Z,9.32